Terminal Aerodrome Forecast
Issued by NWS

Current Version | Previous Version | Text Only | Print | Product List | Glossary On
Versions: 1 2 3 4 5 6 7 8 9 10 11 12 13 14 15
000 FTUS41 KBTV 271128 AAA TAFMPV TAF AMD KMPV 271128Z 2711/2812 35007KT P6SM SCT020 OVC060 FM271400 34010G18KT 2SM -SN BR BKN020 OVC035 TEMPO 2714/2718 1/2SM SN FG BKN015 OVC020 FM272200 32010G18KT 5SM -SN BR OVC025 FM280400 32009KT P6SM VCSH BKN025 OVC035=

USA.gov is the U.S. government's official web portal to all federal, state and local government web resources and services.